createdAt,value
2023-03-08T00:00:16.001Z,98293.91
2023-03-08T00:04:17.943Z,98299.19
2023-03-08T00:08:19.870Z,98283.03
2023-03-08T00:12:22.808Z,98298.66
2023-03-08T00:16:24.758Z,98314.56
2023-03-08T00:20:26.704Z,98314.72
2023-03-08T00:24:28.621Z,98322.31
2023-03-08T00:28:30.641Z,98301.41
2023-03-08T00:32:32.697Z,98330.22
2023-03-08T00:36:34.537Z,98324.78
2023-03-08T00:40:36.317Z,98319.06
2023-03-08T00:44:38.134Z,98337.78
2023-03-08T00:48:40.088Z,98325.84
2023-03-08T00:52:41.911Z,98343.50
2023-03-08T00:56:43.725Z,98353.16
2023-03-08T01:00:45.818Z,98343.22
2023-03-08T01:04:47.618Z,98341.63
2023-03-08T01:08:49.429Z,98350.84
2023-03-08T01:12:51.552Z,98345.97
2023-03-08T01:16:53.345Z,98344.44
2023-03-08T01:21:00.159Z,98339.94
2023-03-08T01:25:01.965Z,98343.75
2023-03-08T01:29:03.808Z,98335.16
2023-03-08T01:33:05.704Z,98339.25
2023-03-08T01:37:07.455Z,98336.38
2023-03-08T01:41:17.892Z,98347.81
2023-03-08T01:46:23.232Z,98337.34
2023-03-08T01:50:25.008Z,98331.53
2023-03-08T01:54:53.693Z,98331.13
2023-03-08T01:58:55.476Z,98330.19
2023-03-08T02:03:00.525Z,98321.91
2023-03-08T02:07:02.498Z,98340.53
2023-03-08T02:11:04.430Z,98317.47
2023-03-08T02:15:07.984Z,98347.44
2023-03-08T02:19:22.121Z,98334.44
2023-03-08T02:23:24.964Z,98331.03
2023-03-08T02:27:27.054Z,98334.81
2023-03-08T02:31:28.817Z,98342.97
2023-03-08T02:35:30.694Z,98341.75
2023-03-08T02:39:32.534Z,98334.00
2023-03-08T02:43:34.428Z,98323.22
2023-03-08T02:47:36.597Z,98345.13
2023-03-08T02:51:38.403Z,98331.78
2023-03-08T02:55:40.357Z,98342.91
2023-03-08T02:59:42.181Z,98330.56
2023-03-08T03:03:44.271Z,98323.25
2023-03-08T03:07:52.674Z,98333.69
2023-03-08T03:12:00.644Z,98336.50
2023-03-08T03:16:09.956Z,98346.97
2023-03-08T03:20:18.702Z,98340.75
2023-03-08T03:24:26.613Z,98347.13
2023-03-08T03:28:28.456Z,98331.00
2023-03-08T03:32:30.416Z,98358.28
2023-03-08T03:36:32.563Z,98341.53
2023-03-08T03:40:34.321Z,98356.25
2023-03-08T03:44:36.357Z,98345.34
2023-03-08T03:48:38.587Z,98360.63
2023-03-08T03:56:58.343Z,98357.03
2023-03-08T04:01:00.250Z,98357.31
2023-03-08T04:05:02.172Z,98369.66
2023-03-08T04:09:06.990Z,98367.06
2023-03-08T04:13:13.432Z,98363.56
2023-03-08T04:17:15.335Z,98365.88
2023-03-08T04:21:17.275Z,98375.34
2023-03-08T04:25:19.162Z,98364.38
2023-03-08T04:29:21.948Z,98373.31
2023-03-08T04:33:24.187Z,98369.66
2023-03-08T04:37:25.945Z,98367.59
2023-03-08T04:41:27.762Z,98368.69
2023-03-08T04:45:29.478Z,98360.66
2023-03-08T04:49:31.278Z,98369.50
2023-03-08T04:53:33.385Z,98361.75
2023-03-08T04:57:35.399Z,98367.59
2023-03-08T05:01:37.315Z,98364.38
2023-03-08T05:05:50.107Z,98374.56
2023-03-08T05:09:55.073Z,98369.56
2023-03-08T05:13:58.542Z,98387.59
2023-03-08T05:18:00.453Z,98381.97
2023-03-08T05:22:02.326Z,98376.28
2023-03-08T05:26:05.034Z,98382.44
2023-03-08T05:30:07.602Z,98367.59
2023-03-08T05:34:10.727Z,98358.50
2023-03-08T05:38:12.634Z,98375.31
2023-03-08T05:42:14.677Z,98391.81
2023-03-08T05:46:18.862Z,98397.59
2023-03-08T05:50:20.787Z,98399.06
2023-03-08T05:54:22.825Z,98394.31
2023-03-08T05:58:24.720Z,98391.19
2023-03-08T06:02:26.749Z,98394.47
2023-03-08T06:06:28.851Z,98392.00
2023-03-08T06:10:30.997Z,98392.78
2023-03-08T06:14:33.003Z,98392.75
2023-03-08T06:18:39.586Z,98382.72
2023-03-08T06:22:43.879Z,98398.91
2023-03-08T06:26:45.957Z,98404.56
2023-03-08T06:30:53.840Z,98394.66
2023-03-08T06:35:10.246Z,98386.72
2023-03-08T06:39:12.219Z,98394.06
2023-03-08T06:43:14.055Z,98385.31
2023-03-08T06:47:15.994Z,98366.22
2023-03-08T06:51:18.379Z,98359.38
2023-03-08T06:55:20.188Z,98367.84
2023-03-08T06:59:22.285Z,98378.03
2023-03-08T07:03:24.079Z,98376.28
2023-03-08T07:07:25.906Z,98380.53
2023-03-08T07:11:29.737Z,98395.38
2023-03-08T07:15:31.588Z,98389.09
2023-03-08T07:19:33.467Z,98398.03
2023-03-08T07:23:39.435Z,98397.53
2023-03-08T07:27:41.479Z,98393.69
2023-03-08T07:31:43.413Z,98384.22
2023-03-08T07:35:45.206Z,98390.72
2023-03-08T07:39:47.059Z,98383.91
2023-03-08T07:43:49.524Z,98388.53
2023-03-08T07:47:53.926Z,98389.72
2023-03-08T07:52:07.743Z,98387.06
2023-03-08T07:56:10.471Z,98390.09
2023-03-08T08:00:12.872Z,98391.19
2023-03-08T08:04:14.926Z,98395.66
2023-03-08T08:08:16.872Z,98383.28
2023-03-08T08:12:18.897Z,98386.41
2023-03-08T08:16:20.805Z,98381.72
2023-03-08T08:20:22.707Z,98368.22
2023-03-08T08:24:24.783Z,98365.25
2023-03-08T08:28:26.881Z,98365.44
2023-03-08T08:32:28.815Z,98346.97
2023-03-08T08:36:30.786Z,98364.22
2023-03-08T08:40:32.586Z,98357.16
2023-03-08T08:44:34.622Z,98368.16
2023-03-08T08:48:38.230Z,98351.47
2023-03-08T08:52:40.005Z,98338.53
2023-03-08T08:56:43.590Z,98343.03
2023-03-08T09:00:45.806Z,98331.78
2023-03-08T09:04:47.747Z,98336.88
2023-03-08T09:08:54.942Z,98341.66
2023-03-08T09:12:57.936Z,98334.03
2023-03-08T09:17:00.629Z,98314.34
2023-03-08T09:21:02.546Z,98294.63
2023-03-08T09:25:05.958Z,98299.91
2023-03-08T09:29:08.090Z,98289.41
2023-03-08T09:33:09.971Z,98284.28
2023-03-08T09:37:12.312Z,98274.50
2023-03-08T09:41:39.495Z,98263.00
2023-03-08T09:45:41.470Z,98257.97
2023-03-08T09:49:43.474Z,98242.31
2023-03-08T09:54:00.080Z,98246.19
2023-03-08T09:58:19.914Z,98242.94
2023-03-08T10:02:47.872Z,98240.75
2023-03-08T10:07:20.136Z,98217.28
2023-03-08T10:11:31.182Z,98223.53
2023-03-08T10:15:36.500Z,98218.31
2023-03-08T10:20:11.553Z,98215.25
2023-03-08T10:24:36.717Z,98213.56
2023-03-08T10:28:42.409Z,98212.06
2023-03-08T10:32:46.885Z,98206.53
2023-03-08T10:37:00.822Z,98204.56
2023-03-08T10:41:14.684Z,98196.28
2023-03-08T10:45:23.164Z,98201.97
2023-03-08T10:49:28.160Z,98208.63
2023-03-08T10:53:31.940Z,98185.41
2023-03-08T10:57:34.589Z,98179.84
2023-03-08T11:01:49.614Z,98165.38
2023-03-08T11:05:58.742Z,98158.38
2023-03-08T11:10:19.067Z,98152.59
2023-03-08T11:14:21.252Z,98145.75
2023-03-08T11:18:54.248Z,98132.44
2023-03-08T11:23:28.271Z,98103.50
2023-03-08T11:28:22.641Z,98101.59
2023-03-08T11:32:56.116Z,98091.34
2023-03-08T11:37:22.436Z,98083.22
2023-03-08T11:41:47.187Z,98077.00
2023-03-08T11:46:00.962Z,98061.22
2023-03-08T11:50:30.234Z,98048.09
2023-03-08T11:54:52.382Z,98031.59
2023-03-08T11:59:37.156Z,98017.81
2023-03-08T12:03:43.693Z,98014.75
2023-03-08T12:08:16.410Z,98014.56
2023-03-08T12:12:30.573Z,97995.47
2023-03-08T12:16:50.027Z,97996.44
2023-03-08T12:20:52.883Z,97996.59
2023-03-08T12:25:09.881Z,97992.56
2023-03-08T12:29:22.860Z,97984.88
2023-03-08T12:33:25.477Z,97986.16
2023-03-08T12:37:29.374Z,97963.75
2023-03-08T12:41:34.396Z,97981.03
2023-03-08T12:45:36.300Z,97972.31
2023-03-08T12:50:10.366Z,97962.28
2023-03-08T12:54:21.521Z,97964.19
2023-03-08T12:58:23.316Z,97955.66
2023-03-08T13:02:33.234Z,97959.44
2023-03-08T13:06:53.130Z,97982.66
2023-03-08T13:11:13.543Z,97968.53
2023-03-08T13:15:15.406Z,97971.16
2023-03-08T13:19:25.992Z,97964.44
2023-03-08T13:23:46.779Z,97968.38
2023-03-08T13:28:10.922Z,97950.97
2023-03-08T13:32:23.804Z,97948.97
2023-03-08T13:36:31.054Z,97947.47
2023-03-08T13:40:32.940Z,97952.19
2023-03-08T13:44:34.778Z,97933.28
2023-03-08T13:48:36.691Z,97913.09
2023-03-08T13:52:39.531Z,97911.50
2023-03-08T13:56:41.728Z,97901.63
2023-03-08T14:00:43.646Z,97882.69
2023-03-08T14:04:45.691Z,97885.72
2023-03-08T14:08:47.829Z,97884.22
2023-03-08T14:12:51.377Z,97884.09
2023-03-08T14:16:53.929Z,97878.22
2023-03-08T14:21:14.859Z,97872.59
2023-03-08T14:25:29.421Z,97860.94
2023-03-08T14:29:35.178Z,97885.78
2023-03-08T14:33:42.537Z,97863.94
2023-03-08T14:37:45.728Z,97870.56
2023-03-08T14:41:47.860Z,97867.63
2023-03-08T14:45:56.037Z,97869.78
2023-03-08T14:50:08.701Z,97854.06
2023-03-08T14:54:35.863Z,97837.75
2023-03-08T14:58:40.690Z,97834.66
2023-03-08T15:02:43.257Z,97836.69
2023-03-08T15:06:45.274Z,97817.88
2023-03-08T15:10:47.352Z,97804.59
2023-03-08T15:14:49.239Z,97798.03
2023-03-08T15:18:51.325Z,97787.59
2023-03-08T15:22:56.736Z,97808.34
2023-03-08T15:26:58.626Z,97806.69
2023-03-08T15:31:00.948Z,97806.16
2023-03-08T15:35:03.579Z,97796.38
2023-03-08T15:39:05.917Z,97794.13
2023-03-08T15:43:08.210Z,97786.53
2023-03-08T15:47:10.504Z,97780.69
2023-03-08T15:51:20.275Z,97767.41
2023-03-08T15:55:23.581Z,97769.81
2023-03-08T15:59:25.840Z,97778.97
2023-03-08T16:03:31.053Z,97769.09
2023-03-08T16:07:33.278Z,97754.56
2023-03-08T16:11:35.140Z,97745.34
2023-03-08T16:15:41.584Z,97749.69
2023-03-08T16:19:45.608Z,97755.16
2023-03-08T16:23:47.516Z,97757.34
2023-03-08T16:27:49.364Z,97755.41
2023-03-08T16:31:51.480Z,97747.28
2023-03-08T16:35:56.925Z,97741.00
2023-03-08T16:40:02.155Z,97745.09
2023-03-08T16:44:05.486Z,97748.59
2023-03-08T16:48:23.674Z,97744.63
2023-03-08T16:52:28.930Z,97735.78
2023-03-08T16:56:36.298Z,97757.66
2023-03-08T17:00:38.545Z,97741.91
2023-03-08T17:04:40.637Z,97747.41
2023-03-08T17:08:42.594Z,97733.84
2023-03-08T17:12:44.772Z,97730.22
2023-03-08T17:16:47.870Z,97743.38
2023-03-08T17:20:49.834Z,97751.91
2023-03-08T17:24:57.165Z,97742.59
2023-03-08T17:28:59.134Z,97735.47
2023-03-08T17:33:06.106Z,97741.63
2023-03-08T17:37:11.449Z,97733.19
2023-03-08T17:41:17.228Z,97709.97
2023-03-08T17:45:22.042Z,97728.41
2023-03-08T17:49:25.192Z,97714.81
2023-03-08T17:53:30.296Z,97709.66
2023-03-08T17:57:32.218Z,97709.81
2023-03-08T18:01:36.245Z,97732.94
2023-03-08T18:05:38.389Z,97725.34
2023-03-08T18:09:40.937Z,97718.31
2023-03-08T18:13:42.847Z,97737.09
2023-03-08T18:17:47.815Z,97743.63
2023-03-08T18:21:54.706Z,97740.25
2023-03-08T18:26:34.958Z,97740.81
2023-03-08T18:30:40.543Z,97726.56
2023-03-08T18:35:22.661Z,97719.63
2023-03-08T18:39:39.751Z,97710.09
2023-03-08T18:48:23.513Z,97723.72
2023-03-08T18:56:50.249Z,97732.34
2023-03-08T19:00:59.113Z,97723.72
2023-03-08T19:05:28.629Z,97735.84
2023-03-08T19:09:43.642Z,97705.59
2023-03-08T19:13:48.060Z,97716.94
2023-03-08T19:18:28.254Z,97701.09
2023-03-08T19:23:56.645Z,97702.38
2023-03-08T19:42:17.107Z,97712.00
2023-03-08T19:46:19.237Z,97716.94
2023-03-08T19:50:21.272Z,97714.09
2023-03-08T19:54:57.709Z,97709.91
2023-03-08T19:59:45.317Z,97701.19
2023-03-08T20:03:56.967Z,97698.78
2023-03-08T20:08:19.145Z,97718.97
2023-03-08T20:12:56.795Z,97713.97
2023-03-08T20:17:04.743Z,97717.00
2023-03-08T20:21:09.880Z,97716.34
2023-03-08T20:25:12.769Z,97712.19
2023-03-08T20:29:15.548Z,97719.91
2023-03-08T20:33:17.527Z,97714.88
2023-03-08T20:37:21.932Z,97720.41
2023-03-08T20:41:23.794Z,97727.88
2023-03-08T20:45:26.174Z,97731.25
2023-03-08T20:49:28.670Z,97733.84
2023-03-08T20:53:30.927Z,97730.72
2023-03-08T20:57:32.674Z,97728.63
2023-03-08T21:01:34.604Z,97719.47
2023-03-08T21:05:38.994Z,97723.97
2023-03-08T21:09:41.956Z,97716.59
2023-03-08T21:13:44.424Z,97712.91
2023-03-08T21:17:46.450Z,97711.47
2023-03-08T21:21:48.493Z,97713.41
2023-03-08T21:25:53.830Z,97704.69
2023-03-08T21:29:55.711Z,97702.59
2023-03-08T21:33:58.030Z,97701.75
2023-03-08T21:38:00.002Z,97696.91
2023-03-08T21:42:02.085Z,97689.81
2023-03-08T21:46:04.842Z,97698.91
2023-03-08T21:50:09.909Z,97689.81
2023-03-08T21:54:11.794Z,97681.75
2023-03-08T21:58:13.687Z,97676.91
2023-03-08T22:02:15.525Z,97677.53
2023-03-08T22:06:17.719Z,97673.19
2023-03-08T22:10:20.297Z,97669.44
2023-03-08T22:14:22.075Z,97678.53
2023-03-08T22:18:24.025Z,97663.97
2023-03-08T22:22:25.841Z,97672.66
2023-03-08T22:26:28.751Z,97671.38
2023-03-08T22:30:30.554Z,97676.44
2023-03-08T22:34:32.614Z,97668.16
2023-03-08T22:38:34.453Z,97660.03
2023-03-08T22:42:36.301Z,97657.88
2023-03-08T22:46:38.116Z,97656.09
2023-03-08T22:50:47.942Z,97655.06
2023-03-08T22:54:49.776Z,97655.94
2023-03-08T22:58:51.898Z,97659.28
2023-03-08T23:02:56.716Z,97662.16
2023-03-08T23:06:58.573Z,97677.22
2023-03-08T23:11:00.430Z,97663.69
2023-03-08T23:15:02.713Z,97654.91
2023-03-08T23:19:04.562Z,97663.81
2023-03-08T23:23:07.659Z,97643.59
2023-03-08T23:27:09.766Z,97642.00
2023-03-08T23:31:14.328Z,97642.91
2023-03-08T23:35:16.314Z,97648.75
2023-03-08T23:39:18.072Z,97646.97
2023-03-08T23:43:19.932Z,97650.69
2023-03-08T23:47:21.698Z,97636.28
2023-03-08T23:51:24.397Z,97627.00
2023-03-08T23:55:26.254Z,97606.38
2023-03-08T23:59:28.013Z,97614.06
